createdAt,value
2019-05-22T00:00:07.431Z,12.6
2019-05-22T00:05:07.664Z,12.7
2019-05-22T00:06:07.672Z,12.7
2019-05-22T00:07:07.630Z,12.7
2019-05-22T00:08:07.655Z,12.7
2019-05-22T00:09:17.710Z,12.7
2019-05-22T00:10:17.695Z,12.7
2019-05-22T00:15:07.847Z,12.7
2019-05-22T00:20:07.971Z,12.8
2019-05-22T00:21:07.973Z,12.9
2019-05-22T00:22:07.998Z,12.8
2019-05-22T00:23:08.033Z,12.9
2019-05-22T00:24:18.103Z,12.8
2019-05-22T00:25:18.086Z,12.9
2019-05-22T00:30:08.220Z,12.9
2019-05-22T00:35:08.319Z,13.0
2019-05-22T00:40:08.383Z,13.1
2019-05-22T00:45:08.544Z,13.0
2019-05-22T00:50:08.601Z,13.1
2019-05-22T00:55:08.667Z,13.0
2019-05-22T01:00:08.776Z,13.3
2019-05-22T01:05:08.985Z,13.4
2019-05-22T01:06:09.103Z,13.4
2019-05-22T01:07:09.109Z,13.4
2019-05-22T01:08:09.146Z,13.4
2019-05-22T01:09:19.173Z,13.4
2019-05-22T01:10:19.267Z,13.4
2019-05-22T01:15:09.298Z,13.4
2019-05-22T01:20:09.383Z,13.4
2019-05-22T01:21:09.426Z,13.4
2019-05-22T01:22:09.460Z,13.5
2019-05-22T01:23:09.492Z,13.4
2019-05-22T01:24:19.515Z,13.5
2019-05-22T01:25:19.602Z,13.4
2019-05-22T01:26:09.623Z,13.4
2019-05-22T01:27:09.739Z,13.5
2019-05-22T01:28:09.771Z,13.4
2019-05-22T01:29:19.865Z,13.4
2019-05-22T01:30:19.954Z,13.4
2019-05-22T01:31:09.980Z,13.4
2019-05-22T01:32:09.985Z,13.4
2019-05-22T01:33:10.013Z,13.4
2019-05-22T01:34:10.035Z,13.5
2019-05-22T01:35:10.068Z,13.5
2019-05-22T01:40:10.155Z,13.4
2019-05-22T01:41:00.229Z,13.5
2019-05-22T01:45:10.267Z,13.4
2019-05-22T01:49:10.406Z,13.5
2019-05-22T01:50:10.424Z,13.5
2019-05-22T01:54:10.556Z,13.4
2019-05-22T01:55:10.557Z,13.4
2019-05-22T01:59:10.687Z,13.4
2019-05-22T02:00:10.628Z,13.3
2019-05-22T02:01:00.669Z,13.3
2019-05-22T02:04:12.741Z,13.3
2019-05-22T02:05:10.801Z,13.4
2019-05-22T02:06:10.817Z,13.3
2019-05-22T02:07:10.858Z,13.4
2019-05-22T02:08:10.879Z,13.4
2019-05-22T02:09:20.975Z,13.4
2019-05-22T02:10:21.047Z,13.3
2019-05-22T02:11:11.025Z,13.4
2019-05-22T02:14:11.064Z,13.3
2019-05-22T02:15:11.099Z,13.4
2019-05-22T02:19:11.148Z,13.4
2019-05-22T02:20:11.172Z,13.3
2019-05-22T02:21:11.263Z,13.4
2019-05-22T02:24:11.333Z,13.3
2019-05-22T02:25:11.962Z,13.3
2019-05-22T02:29:11.408Z,13.3
2019-05-22T02:30:11.433Z,13.3
2019-05-22T02:34:11.460Z,13.3
2019-05-22T02:35:11.501Z,13.3
2019-05-22T02:36:11.510Z,13.3
2019-05-22T02:37:11.538Z,13.3
2019-05-22T02:38:11.580Z,13.4
2019-05-22T02:39:21.594Z,13.3
2019-05-22T02:40:21.611Z,13.3
2019-05-22T02:44:11.693Z,13.3
2019-05-22T02:45:11.814Z,13.3
2019-05-22T02:49:11.859Z,13.2
2019-05-22T02:50:11.885Z,13.2
2019-05-22T02:54:11.977Z,13.3
2019-05-22T02:55:11.979Z,13.2
2019-05-22T02:59:12.108Z,13.2
2019-05-22T03:00:12.123Z,13.2
2019-05-22T03:04:12.218Z,13.2
2019-05-22T03:05:12.284Z,13.2
2019-05-22T03:09:12.416Z,13.2
2019-05-22T03:10:12.426Z,13.2
2019-05-22T03:14:12.428Z,13.2
2019-05-22T03:19:12.571Z,13.2
2019-05-22T03:24:12.722Z,13.2
2019-05-22T03:25:12.732Z,13.2
2019-05-22T03:30:22.912Z,13.3
2019-05-22T03:31:02.957Z,13.2
2019-05-22T03:35:22.982Z,13.2
2019-05-22T03:37:53.004Z,13.3
2019-05-22T03:39:53.154Z,13.2
2019-05-22T03:40:53.271Z,13.3
2019-05-22T03:44:53.215Z,13.2
2019-05-22T03:45:53.240Z,13.3
2019-05-22T03:47:33.368Z,13.3
2019-05-22T03:49:53.366Z,13.3
2019-05-22T03:50:53.343Z,13.3
2019-05-22T03:54:53.461Z,13.3
2019-05-22T03:55:53.438Z,13.3
2019-05-22T03:59:53.574Z,13.3
2019-05-22T04:00:43.794Z,13.4
2019-05-22T04:01:23.603Z,13.3
2019-05-22T04:02:23.709Z,13.3
2019-05-22T04:03:23.745Z,13.3
2019-05-22T04:04:43.782Z,13.4
2019-05-22T04:05:43.807Z,13.5
2019-05-22T04:06:23.850Z,13.5
2019-05-22T04:07:23.870Z,13.5
2019-05-22T04:08:23.894Z,13.5
2019-05-22T04:09:43.908Z,13.6
2019-05-22T04:10:43.942Z,13.6
2019-05-22T04:11:24.049Z,13.6
2019-05-22T04:12:24.109Z,13.7
2019-05-22T04:13:24.115Z,13.6
2019-05-22T04:14:44.134Z,13.7
2019-05-22T04:15:44.154Z,13.6
2019-05-22T04:16:24.162Z,13.6
2019-05-22T04:17:24.164Z,13.6
2019-05-22T04:18:24.176Z,13.6
2019-05-22T04:19:49.843Z,13.6
2019-05-22T04:20:44.245Z,13.5
2019-05-22T04:21:24.206Z,13.6
2019-05-22T04:22:24.258Z,13.6
2019-05-22T04:23:24.299Z,13.6
2019-05-22T04:24:44.300Z,13.6
2019-05-22T04:25:44.339Z,13.5
2019-05-22T04:26:24.338Z,13.5
2019-05-22T04:27:24.358Z,13.6
2019-05-22T04:28:24.379Z,13.5
2019-05-22T04:29:44.422Z,13.5
2019-05-22T04:30:44.454Z,13.5
2019-05-22T04:31:24.465Z,13.5
2019-05-22T04:32:24.478Z,13.6
2019-05-22T04:33:24.488Z,13.4
2019-05-22T04:34:44.494Z,13.5
2019-05-22T04:35:44.538Z,13.6
2019-05-22T04:36:24.514Z,13.5
2019-05-22T04:37:24.526Z,13.6
2019-05-22T04:38:24.559Z,13.4
2019-05-22T04:39:44.579Z,13.5
2019-05-22T04:40:44.581Z,13.6
2019-05-22T04:41:24.629Z,13.6
2019-05-22T04:42:24.659Z,13.5
2019-05-22T04:43:24.760Z,13.6
2019-05-22T04:46:24.956Z,13.6
2019-05-22T04:47:14.877Z,13.6
2019-05-22T04:48:14.881Z,13.6
2019-05-22T04:49:14.884Z,13.7
2019-05-22T04:50:24.907Z,13.6
2019-05-22T04:51:14.914Z,13.6
2019-05-22T04:52:14.915Z,13.7
2019-05-22T04:53:14.923Z,13.7
2019-05-22T04:54:14.952Z,13.6
2019-05-22T04:55:24.972Z,13.7
2019-05-22T04:56:14.978Z,13.8
2019-05-22T04:57:15.008Z,13.7
2019-05-22T04:58:15.026Z,13.7
2019-05-22T04:59:15.040Z,13.7
2019-05-22T05:00:25.041Z,13.7
2019-05-22T05:01:15.087Z,13.7
2019-05-22T05:02:15.132Z,13.7
2019-05-22T05:03:15.145Z,13.8
2019-05-22T05:04:15.165Z,13.8
2019-05-22T05:05:25.234Z,13.8
2019-05-22T05:06:15.312Z,13.9
2019-05-22T05:07:15.299Z,13.9
2019-05-22T05:08:15.306Z,13.8
2019-05-22T05:09:15.346Z,13.8
2019-05-22T05:10:25.363Z,13.9
2019-05-22T05:11:15.364Z,14.0
2019-05-22T05:12:15.405Z,14.0
2019-05-22T05:13:15.410Z,14.0
2019-05-22T05:14:15.411Z,14.0
2019-05-22T05:15:25.440Z,14.0
2019-05-22T05:16:15.448Z,14.1
2019-05-22T05:17:15.544Z,14.1
2019-05-22T05:18:15.524Z,14.1
2019-05-22T05:19:15.551Z,14.1
2019-05-22T05:20:25.551Z,14.2
2019-05-22T05:21:15.639Z,14.2
2019-05-22T05:22:15.670Z,14.3
2019-05-22T05:23:15.738Z,14.3
2019-05-22T05:24:15.746Z,14.3
2019-05-22T05:25:25.803Z,14.3
2019-05-22T05:26:15.850Z,14.4
2019-05-22T05:27:15.862Z,14.3
2019-05-22T05:28:15.866Z,14.4
2019-05-22T05:29:15.868Z,14.4
2019-05-22T05:30:26.006Z,14.4
2019-05-22T05:31:16.043Z,14.3
2019-05-22T05:32:15.963Z,14.4
2019-05-22T05:33:15.967Z,14.4
2019-05-22T05:34:26.001Z,14.4
2019-05-22T05:35:26.010Z,14.4
2019-05-22T05:36:16.063Z,14.4
2019-05-22T05:37:16.108Z,14.4
2019-05-22T05:38:16.178Z,14.4
2019-05-22T05:39:26.199Z,14.4
2019-05-22T05:40:26.224Z,14.4
2019-05-22T05:41:16.274Z,14.4
2019-05-22T05:42:16.299Z,14.4
2019-05-22T05:43:16.292Z,14.5
2019-05-22T05:44:26.406Z,14.5
2019-05-22T05:45:26.340Z,14.6
2019-05-22T05:46:16.345Z,14.5
2019-05-22T05:47:16.358Z,14.6
2019-05-22T05:48:16.426Z,14.6
2019-05-22T05:49:26.413Z,14.6
2019-05-22T05:50:38.714Z,14.6
2019-05-22T05:51:16.431Z,14.6
2019-05-22T05:52:16.443Z,14.7
2019-05-22T05:53:16.583Z,14.7
2019-05-22T05:54:26.490Z,14.7
2019-05-22T05:55:26.544Z,14.8
2019-05-22T05:56:16.561Z,14.9
2019-05-22T05:57:16.568Z,14.9
2019-05-22T05:58:16.645Z,15.0
2019-05-22T05:59:26.630Z,14.9
2019-05-22T06:00:26.697Z,14.8
2019-05-22T06:01:16.742Z,14.9
2019-05-22T06:02:16.753Z,14.9
2019-05-22T06:03:16.758Z,15.1
2019-05-22T06:05:26.948Z,15.1
2019-05-22T06:06:17.039Z,15.0
2019-05-22T06:07:17.028Z,15.1
2019-05-22T06:08:17.037Z,15.1
2019-05-22T06:09:27.121Z,15.1
2019-05-22T06:10:27.130Z,15.0
2019-05-22T06:11:17.138Z,15.0
2019-05-22T06:12:17.156Z,15.0
2019-05-22T06:13:17.209Z,15.0
2019-05-22T06:14:21.209Z,15.1
2019-05-22T06:14:27.198Z,15.1
2019-05-22T06:15:27.192Z,15.1
2019-05-22T06:16:17.205Z,15.0
2019-05-22T06:17:17.233Z,15.1
2019-05-22T06:18:17.250Z,15.1
2019-05-22T06:19:27.276Z,15.2
2019-05-22T06:20:27.406Z,15.3
2019-05-22T06:21:17.434Z,15.3
2019-05-22T06:22:17.433Z,15.4
2019-05-22T06:23:17.448Z,15.3
2019-05-22T06:26:17.609Z,15.4
2019-05-22T06:29:28.309Z,15.5
2019-05-22T06:30:27.776Z,15.6
2019-05-22T06:34:27.918Z,15.7
2019-05-22T06:35:27.903Z,15.7
2019-05-22T06:39:28.011Z,15.8
2019-05-22T06:40:27.989Z,15.6
2019-05-22T06:44:28.038Z,15.7
2019-05-22T06:45:28.084Z,15.8
2019-05-22T06:49:28.211Z,15.8
2019-05-22T06:50:28.219Z,15.8
2019-05-22T06:54:28.293Z,16.0
2019-05-22T06:55:28.311Z,16.0
2019-05-22T06:59:28.419Z,16.0
2019-05-22T07:00:28.424Z,16.1
2019-05-22T07:03:09.338Z,16.1
2019-05-22T07:04:28.593Z,16.0
2019-05-22T07:05:28.600Z,16.2
2019-05-22T07:09:28.660Z,16.1
2019-05-22T07:10:28.708Z,16.1
2019-05-22T07:14:28.736Z,16.2
2019-05-22T07:15:28.774Z,16.2
2019-05-22T07:19:29.143Z,16.3
2019-05-22T07:20:19.157Z,16.4
2019-05-22T07:24:29.227Z,16.6
2019-05-22T07:25:29.262Z,16.6
2019-05-22T07:29:29.333Z,16.8
2019-05-22T07:30:29.350Z,16.9
2019-05-22T07:34:29.424Z,16.9
2019-05-22T07:35:44.075Z,17.0
2019-05-22T07:36:12.396Z,17.0
2019-05-22T07:39:29.620Z,17.1
2019-05-22T07:40:29.634Z,17.2
2019-05-22T07:44:29.763Z,17.3
2019-05-22T07:45:29.782Z,17.3
2019-05-22T07:47:10.994Z,17.3
2019-05-22T07:49:29.885Z,17.4
2019-05-22T07:50:19.894Z,17.5
2019-05-22T07:54:29.962Z,17.5
2019-05-22T07:55:30.030Z,17.5
2019-05-22T07:59:30.096Z,17.5
2019-05-22T08:00:20.102Z,17.5
2019-05-22T08:02:00.168Z,17.5
2019-05-22T08:03:00.147Z,17.5
2019-05-22T08:04:00.156Z,17.5
2019-05-22T08:05:20.202Z,17.6
2019-05-22T08:06:00.246Z,17.6
2019-05-22T08:06:50.230Z,17.5
2019-05-22T08:07:30.223Z,17.7
2019-05-22T08:08:20.216Z,17.7
2019-05-22T08:10:30.249Z,17.8
2019-05-22T08:11:00.248Z,17.9
2019-05-22T08:12:00.285Z,18.0
2019-05-22T08:13:00.278Z,18.2
2019-05-22T08:14:20.302Z,18.1
2019-05-22T08:15:20.328Z,18.0
2019-05-22T08:16:00.338Z,18.1
2019-05-22T08:16:50.439Z,18.0
2019-05-22T08:17:30.367Z,18.2
2019-05-22T08:18:20.396Z,18.1
2019-05-22T08:19:40.608Z,18.1
2019-05-22T08:20:40.507Z,18.3
2019-05-22T08:21:23.316Z,18.3
2019-05-22T08:22:20.503Z,18.4
2019-05-22T08:23:20.493Z,18.5
2019-05-22T08:24:40.585Z,18.6
2019-05-22T08:26:20.554Z,18.5
2019-05-22T08:27:20.580Z,18.5
2019-05-22T08:28:20.591Z,18.4
2019-05-22T08:31:11.762Z,18.4
2019-05-22T08:33:10.739Z,18.5
2019-05-22T08:34:30.751Z,18.5
2019-05-22T08:35:20.832Z,18.4
2019-05-22T08:36:00.778Z,18.3
2019-05-22T08:36:50.790Z,18.2
2019-05-22T08:37:30.813Z,18.1
2019-05-22T08:38:20.808Z,18.2
2019-05-22T08:39:40.901Z,18.3
2019-05-22T08:40:30.865Z,18.3
2019-05-22T08:41:00.856Z,18.4
2019-05-22T08:42:01.871Z,18.4
2019-05-22T08:43:00.947Z,18.5
2019-05-22T08:44:20.924Z,18.4
2019-05-22T08:45:20.927Z,18.4
2019-05-22T08:46:00.944Z,18.4
2019-05-22T08:46:50.997Z,18.5
2019-05-22T08:47:30.963Z,18.5
2019-05-22T08:48:20.987Z,18.3
2019-05-22T08:49:41.051Z,18.6
2019-05-22T08:50:31.188Z,18.6
2019-05-22T08:51:01.074Z,18.6
2019-05-22T08:52:01.130Z,18.7
2019-05-22T08:53:01.177Z,18.8
2019-05-22T08:54:21.198Z,19.0
2019-05-22T08:55:21.245Z,19.1
2019-05-22T08:56:01.134Z,19.1
2019-05-22T08:56:51.168Z,19.5
2019-05-22T08:57:31.189Z,19.5
2019-05-22T08:58:21.224Z,19.7
2019-05-22T09:01:21.445Z,20.1
2019-05-22T09:02:21.484Z,20.3
2019-05-22T09:03:21.526Z,20.3
2019-05-22T09:10:31.675Z,20.3
2019-05-22T09:15:31.796Z,20.0
2019-05-22T09:16:02.117Z,20.0
2019-05-22T09:17:01.840Z,19.9
2019-05-22T09:18:01.853Z,19.8
2019-05-22T09:19:01.901Z,19.8
2019-05-22T09:20:21.923Z,19.7
2019-05-22T09:21:01.952Z,19.6
2019-05-22T09:21:51.948Z,19.7
2019-05-22T09:22:40.433Z,19.7
2019-05-22T09:23:32.024Z,19.8
2019-05-22T09:24:52.060Z,19.8
2019-05-22T09:25:52.169Z,20.1
2019-05-22T09:26:32.214Z,20.2
2019-05-22T09:27:32.653Z,20.3
2019-05-22T09:28:32.202Z,20.4
2019-05-22T09:29:52.213Z,20.5
2019-05-22T09:30:52.232Z,20.8
2019-05-22T09:31:32.243Z,21.0
2019-05-22T09:32:32.260Z,21.3
2019-05-22T09:33:32.268Z,21.7
2019-05-22T09:34:52.310Z,21.7
2019-05-22T09:35:52.303Z,22.0
2019-05-22T09:36:32.336Z,22.2
2019-05-22T09:37:32.370Z,22.3
2019-05-22T09:38:32.700Z,22.3
2019-05-22T09:39:52.496Z,22.1
2019-05-22T09:42:32.536Z,21.8
2019-05-22T09:43:02.603Z,21.8
2019-05-22T09:44:02.681Z,21.6
2019-05-22T09:45:22.625Z,21.7
2019-05-22T09:46:02.680Z,21.8
2019-05-22T09:47:02.656Z,21.8
2019-05-22T09:48:02.681Z,21.7
2019-05-22T09:48:52.691Z,21.6
2019-05-22T09:49:52.766Z,21.5
2019-05-22T09:50:52.761Z,21.7
2019-05-22T09:51:32.767Z,21.7
2019-05-22T09:52:32.786Z,21.4
2019-05-22T09:53:32.796Z,21.4
2019-05-22T09:54:52.868Z,21.3
2019-05-22T09:55:52.869Z,21.0
2019-05-22T09:56:32.931Z,20.9
2019-05-22T09:57:32.995Z,20.8
2019-05-22T09:58:33.003Z,20.9
2019-05-22T09:59:53.035Z,20.8
2019-05-22T10:00:53.083Z,20.9
2019-05-22T10:01:33.085Z,20.8
2019-05-22T10:02:23.097Z,20.8
2019-05-22T10:03:23.157Z,20.6
2019-05-22T10:10:33.289Z,20.4
2019-05-22T10:11:03.290Z,20.3
2019-05-22T10:12:03.366Z,20.2
2019-05-22T10:13:03.339Z,20.1
2019-05-22T10:14:03.341Z,20.1
2019-05-22T10:16:03.378Z,20.0
2019-05-22T10:16:53.399Z,20.1
2019-05-22T10:17:33.393Z,20.1
2019-05-22T10:18:33.424Z,20.0
2019-05-22T10:19:53.518Z,20.0
2019-05-22T10:21:23.754Z,20.2
2019-05-22T10:22:23.865Z,20.3
2019-05-22T10:23:23.790Z,20.3
2019-05-22T10:25:43.980Z,20.4
2019-05-22T10:26:24.123Z,20.5
2019-05-22T10:27:23.980Z,20.6
2019-05-22T10:28:14.013Z,20.6
2019-05-22T10:29:14.020Z,20.7
2019-05-22T10:30:34.085Z,20.6
2019-05-22T10:31:16.470Z,20.6
2019-05-22T10:32:14.125Z,20.5
2019-05-22T10:33:14.191Z,20.6
2019-05-22T10:34:14.169Z,20.7
2019-05-22T10:35:34.242Z,20.6
2019-05-22T10:36:04.248Z,20.7
2019-05-22T10:37:04.283Z,20.7
2019-05-22T10:38:04.282Z,20.8
2019-05-22T10:39:04.457Z,20.8
2019-05-22T10:40:24.386Z,20.8
2019-05-22T10:41:04.431Z,20.8
2019-05-22T10:41:54.485Z,20.6
2019-05-22T10:42:34.486Z,20.6
2019-05-22T10:43:34.498Z,20.7
2019-05-22T10:44:54.605Z,20.9
2019-05-22T10:46:24.636Z,21.1
2019-05-22T10:47:24.653Z,21.2
2019-05-22T10:50:34.743Z,21.4
2019-05-22T10:55:35.083Z,21.7
2019-05-22T10:56:05.063Z,21.8
2019-05-22T10:57:05.038Z,21.8
2019-05-22T10:58:05.054Z,21.8
2019-05-22T10:59:05.077Z,21.8
2019-05-22T11:00:26.316Z,21.7
2019-05-22T11:01:05.157Z,21.7
2019-05-22T11:02:05.127Z,21.6
2019-05-22T11:03:05.178Z,21.7
2019-05-22T11:04:05.169Z,21.7
2019-05-22T11:05:25.167Z,21.6
2019-05-22T11:06:07.388Z,21.8
2019-05-22T11:07:05.200Z,21.8
2019-05-22T11:08:05.198Z,21.9
2019-05-22T11:09:05.253Z,22.0
2019-05-22T11:10:25.262Z,22.2
2019-05-22T11:11:05.276Z,22.3
2019-05-22T11:12:05.297Z,22.6
2019-05-22T11:13:05.315Z,22.9
2019-05-22T11:14:09.209Z,22.8
2019-05-22T11:15:25.341Z,22.7
2019-05-22T11:16:05.364Z,22.8
2019-05-22T11:17:05.360Z,22.8
2019-05-22T11:18:05.377Z,23.0
2019-05-22T11:19:05.427Z,23.1
2019-05-22T11:20:25.498Z,23.1
2019-05-22T11:21:05.494Z,23.0
2019-05-22T11:21:57.051Z,23.0
2019-05-22T11:22:56.669Z,23.1
2019-05-22T11:23:55.540Z,23.1
2019-05-22T11:26:05.622Z,23.1
2019-05-22T11:27:05.642Z,22.8
2019-05-22T11:28:05.624Z,22.7
2019-05-22T11:29:05.632Z,22.5
2019-05-22T11:30:25.652Z,22.3
2019-05-22T11:31:05.686Z,22.1
2019-05-22T11:31:55.663Z,21.9
2019-05-22T11:32:55.730Z,21.8
2019-05-22T11:33:56.884Z,21.8
2019-05-22T11:36:05.753Z,21.8
2019-05-22T11:37:05.733Z,21.8
2019-05-22T11:38:05.747Z,21.8
2019-05-22T11:39:05.766Z,21.8
2019-05-22T11:40:25.785Z,21.6
2019-05-22T11:41:05.781Z,21.6
2019-05-22T11:41:55.826Z,21.8
2019-05-22T11:42:55.821Z,21.6
2019-05-22T11:43:55.832Z,21.8
2019-05-22T11:46:05.869Z,21.8
2019-05-22T11:47:05.897Z,21.8
2019-05-22T11:48:05.885Z,21.8
2019-05-22T11:49:05.899Z,21.8
2019-05-22T11:50:25.916Z,21.7
2019-05-22T11:51:05.928Z,21.7
2019-05-22T11:51:55.917Z,21.6
2019-05-22T11:52:55.937Z,21.5
2019-05-22T11:54:08.506Z,21.5
2019-05-22T11:56:06.003Z,21.5
2019-05-22T11:57:06.008Z,21.5
2019-05-22T11:58:06.054Z,21.6
2019-05-22T11:59:06.097Z,21.6
2019-05-22T12:00:26.080Z,21.7
2019-05-22T12:01:06.098Z,21.7
2019-05-22T12:01:56.111Z,21.5
2019-05-22T12:02:56.149Z,21.2
2019-05-22T12:03:56.262Z,21.3
2019-05-22T12:06:06.231Z,21.3
2019-05-22T12:07:06.253Z,21.4
2019-05-22T12:08:06.264Z,21.5
2019-05-22T12:09:06.318Z,21.6
2019-05-22T12:10:26.357Z,21.5
2019-05-22T12:11:06.358Z,21.4
2019-05-22T12:11:56.363Z,21.4
2019-05-22T12:12:56.424Z,21.3
2019-05-22T12:13:56.381Z,21.4
2019-05-22T12:16:06.407Z,21.6
2019-05-22T12:17:06.425Z,21.7
2019-05-22T12:18:06.576Z,21.6
2019-05-22T12:19:26.503Z,21.6
2019-05-22T12:20:26.559Z,21.6
2019-05-22T12:21:06.512Z,21.6
2019-05-22T12:21:56.577Z,21.7
2019-05-22T12:22:56.601Z,21.6
2019-05-22T12:26:06.627Z,21.4
2019-05-22T12:27:06.649Z,21.4
2019-05-22T12:28:06.673Z,21.4
2019-05-22T12:29:26.704Z,21.0
2019-05-22T12:30:26.775Z,21.0
2019-05-22T12:31:06.730Z,20.9
2019-05-22T12:31:56.722Z,21.0
2019-05-22T12:32:56.778Z,21.0
2019-05-22T12:34:16.816Z,20.9
2019-05-22T12:36:06.864Z,20.9
2019-05-22T12:37:06.887Z,20.7
2019-05-22T12:38:06.990Z,20.8
2019-05-22T12:39:27.014Z,20.7
2019-05-22T12:40:27.040Z,20.7
2019-05-22T12:41:07.031Z,20.7
2019-05-22T12:41:57.115Z,20.8
2019-05-22T12:42:57.081Z,20.7
2019-05-22T12:46:07.139Z,20.6
2019-05-22T12:47:08.166Z,20.7
2019-05-22T12:48:07.165Z,20.6
2019-05-22T12:49:27.184Z,20.7
2019-05-22T12:50:27.211Z,20.8
2019-05-22T12:51:07.210Z,20.9
2019-05-22T12:51:57.253Z,21.0
2019-05-22T12:52:57.228Z,21.1
2019-05-22T12:56:07.514Z,21.6
2019-05-22T12:57:07.419Z,21.7
2019-05-22T12:58:08.284Z,21.9
2019-05-22T12:59:27.507Z,22.2
2019-05-22T13:00:27.512Z,22.3
2019-05-22T13:01:07.520Z,22.4
2019-05-22T13:01:57.527Z,22.6
2019-05-22T13:02:57.544Z,22.8
2019-05-22T13:06:07.574Z,23.5
2019-05-22T13:07:07.595Z,23.8
2019-05-22T13:08:07.612Z,23.7
2019-05-22T13:09:27.641Z,23.5
2019-05-22T13:10:27.613Z,23.4
2019-05-22T13:11:07.635Z,23.5
2019-05-22T13:11:57.674Z,23.4
2019-05-22T13:12:57.699Z,23.5
2019-05-22T13:15:10.092Z,23.4
2019-05-22T13:16:07.711Z,23.5
2019-05-22T13:17:07.784Z,23.2
2019-05-22T13:18:07.739Z,23.2
2019-05-22T13:19:27.753Z,23.2
2019-05-22T13:20:08.764Z,23.2
2019-05-22T13:20:58.859Z,23.1
2019-05-22T13:21:57.812Z,23.0
2019-05-22T13:22:57.794Z,23.0
2019-05-22T13:25:07.845Z,22.7
2019-05-22T13:26:07.820Z,22.5
2019-05-22T13:27:07.826Z,22.4
2019-05-22T13:28:07.853Z,22.3
2019-05-22T13:29:27.860Z,22.2
2019-05-22T13:30:07.946Z,22.2
2019-05-22T13:30:57.907Z,22.2
2019-05-22T13:31:59.192Z,22.0
2019-05-22T13:32:58.014Z,22.1
2019-05-22T13:35:08.050Z,22.0
2019-05-22T13:36:08.106Z,22.1
2019-05-22T13:37:08.092Z,22.0
2019-05-22T13:38:08.146Z,22.1
2019-05-22T13:39:28.205Z,22.3
2019-05-22T13:40:24.739Z,22.5
2019-05-22T13:40:58.245Z,22.6
2019-05-22T13:41:58.277Z,22.9
2019-05-22T13:42:58.303Z,23.0
2019-05-22T13:45:08.318Z,22.9
2019-05-22T13:46:08.365Z,22.9
2019-05-22T13:47:08.346Z,22.9
2019-05-22T13:48:08.391Z,23.0
2019-05-22T13:49:28.398Z,22.9
2019-05-22T13:50:08.421Z,23.0
2019-05-22T13:50:58.493Z,23.0
2019-05-22T13:51:58.475Z,23.1
2019-05-22T13:52:58.471Z,23.0
2019-05-22T13:54:19.534Z,23.0
2019-05-22T13:55:08.569Z,23.1
2019-05-22T13:56:08.629Z,22.9
2019-05-22T13:57:08.595Z,22.9
2019-05-22T13:58:08.648Z,22.7
2019-05-22T13:59:28.675Z,22.6
2019-05-22T14:00:09.674Z,22.6
2019-05-22T14:00:58.777Z,22.6
2019-05-22T14:01:58.701Z,22.7
2019-05-22T14:02:58.713Z,22.7
2019-05-22T14:05:13.393Z,23.0
2019-05-22T14:06:08.794Z,23.2
2019-05-22T14:07:08.771Z,23.5
2019-05-22T14:08:08.772Z,23.7
2019-05-22T14:09:28.801Z,23.7
2019-05-22T14:10:08.833Z,23.8
2019-05-22T14:10:58.903Z,23.8
2019-05-22T14:11:58.886Z,24.3
2019-05-22T14:12:58.935Z,24.4
2019-05-22T14:15:09.055Z,25.0
2019-05-22T14:16:09.176Z,25.2
2019-05-22T14:17:09.141Z,25.4
2019-05-22T14:18:09.125Z,25.1
2019-05-22T14:19:29.172Z,25.1
2019-05-22T14:20:09.175Z,25.0
2019-05-22T14:20:59.307Z,24.9
2019-05-22T14:21:59.316Z,24.7
2019-05-22T14:22:59.212Z,24.8
2019-05-22T14:25:09.282Z,24.2
2019-05-22T14:26:09.305Z,24.2
2019-05-22T14:27:09.467Z,24.3
2019-05-22T14:28:09.354Z,24.2
2019-05-22T14:29:29.384Z,24.2
2019-05-22T14:30:09.444Z,24.3
2019-05-22T14:30:59.423Z,24.1
2019-05-22T14:31:59.454Z,23.8
2019-05-22T14:33:03.736Z,23.9
2019-05-22T14:35:09.579Z,24.4
2019-05-22T14:36:09.591Z,24.5
2019-05-22T14:37:09.614Z,24.6
2019-05-22T14:38:09.783Z,24.6
2019-05-22T14:39:29.727Z,24.8
2019-05-22T14:40:09.746Z,24.8
2019-05-22T14:40:59.753Z,25.0
2019-05-22T14:41:59.771Z,25.0
2019-05-22T14:42:59.767Z,24.8
2019-05-22T14:45:09.808Z,24.9
2019-05-22T14:46:09.827Z,25.0
2019-05-22T14:47:13.969Z,25.0
2019-05-22T14:48:09.847Z,25.0
2019-05-22T14:49:30.740Z,25.1
2019-05-22T14:50:09.889Z,25.1
2019-05-22T14:50:59.888Z,25.1
2019-05-22T14:51:59.899Z,25.0
2019-05-22T14:53:00.007Z,24.8
2019-05-22T14:55:09.973Z,24.5
2019-05-22T14:56:11.059Z,24.0
2019-05-22T14:57:10.002Z,23.9
2019-05-22T14:58:10.008Z,23.7
2019-05-22T14:59:30.017Z,23.4
2019-05-22T15:00:10.454Z,23.4
2019-05-22T15:01:00.041Z,23.2
2019-05-22T15:02:00.085Z,23.0
2019-05-22T15:03:00.117Z,22.9
2019-05-22T15:05:10.105Z,22.7
2019-05-22T15:06:10.118Z,22.4
2019-05-22T15:07:10.125Z,22.4
2019-05-22T15:08:10.135Z,22.2
2019-05-22T15:09:30.191Z,22.3
2019-05-22T15:10:10.202Z,22.3
2019-05-22T15:11:00.321Z,22.2
2019-05-22T15:12:00.207Z,22.2
2019-05-22T15:13:00.289Z,22.3
2019-05-22T15:15:10.308Z,22.1
2019-05-22T15:16:10.343Z,22.2
2019-05-22T15:17:10.322Z,22.3
2019-05-22T15:18:10.400Z,22.2
2019-05-22T15:19:30.401Z,22.3
2019-05-22T15:20:10.401Z,22.3
2019-05-22T15:21:00.413Z,22.4
2019-05-22T15:22:00.562Z,22.2
2019-05-22T15:23:00.440Z,22.1
2019-05-22T15:25:10.467Z,22.0
2019-05-22T15:26:10.468Z,22.0
2019-05-22T15:27:10.523Z,21.9
2019-05-22T15:28:10.515Z,22.0
2019-05-22T15:29:30.541Z,21.8
2019-05-22T15:30:10.555Z,21.9
2019-05-22T15:31:00.567Z,22.0
2019-05-22T15:32:00.624Z,21.8
2019-05-22T15:33:00.760Z,22.0
2019-05-22T15:35:10.691Z,21.9
2019-05-22T15:36:10.693Z,21.8
2019-05-22T15:37:10.757Z,21.8
2019-05-22T15:38:10.784Z,21.8
2019-05-22T15:39:30.794Z,21.7
2019-05-22T15:40:10.826Z,21.7
2019-05-22T15:41:00.808Z,21.7
2019-05-22T15:42:00.836Z,21.7
2019-05-22T15:43:00.941Z,21.7
2019-05-22T15:45:10.958Z,21.7
2019-05-22T15:46:10.978Z,21.6
2019-05-22T15:47:10.990Z,21.8
2019-05-22T15:48:11.051Z,21.7
2019-05-22T15:49:31.093Z,21.7
2019-05-22T15:50:11.091Z,21.7
2019-05-22T15:51:01.105Z,21.7
2019-05-22T15:52:01.152Z,21.6
2019-05-22T15:53:02.885Z,21.6
2019-05-22T15:55:12.298Z,21.2
2019-05-22T15:56:11.204Z,21.3
2019-05-22T15:57:11.333Z,21.2
2019-05-22T15:58:11.357Z,21.1
2019-05-22T15:59:31.361Z,21.0
2019-05-22T16:00:11.422Z,21.1
2019-05-22T16:01:01.397Z,21.0
2019-05-22T16:02:01.385Z,21.0
2019-05-22T16:03:01.414Z,21.0
2019-05-22T16:05:11.430Z,21.0
2019-05-22T16:06:11.451Z,21.1
2019-05-22T16:07:11.471Z,21.2
2019-05-22T16:08:11.573Z,21.2
2019-05-22T16:09:31.525Z,21.2
2019-05-22T16:10:11.529Z,21.3
2019-05-22T16:11:01.581Z,21.2
2019-05-22T16:12:01.626Z,21.2
2019-05-22T16:13:01.646Z,21.2
2019-05-22T16:15:11.729Z,21.1
2019-05-22T16:16:11.839Z,21.1
2019-05-22T16:17:12.782Z,21.0
2019-05-22T16:18:12.267Z,20.8
2019-05-22T16:19:31.789Z,20.8
2019-05-22T16:20:11.781Z,20.8
2019-05-22T16:21:01.798Z,20.8
2019-05-22T16:22:01.809Z,20.9
2019-05-22T16:23:01.812Z,20.8
2019-05-22T16:25:11.849Z,20.8
2019-05-22T16:26:12.025Z,20.9
2019-05-22T16:27:11.900Z,20.8
2019-05-22T16:28:02.546Z,20.8
2019-05-22T16:30:02.023Z,20.9
2019-05-22T16:31:02.215Z,20.9
2019-05-22T16:32:02.233Z,20.9
2019-05-22T16:33:02.451Z,21.0
2019-05-22T16:35:02.283Z,20.9
2019-05-22T16:36:02.384Z,20.9
2019-05-22T16:37:03.811Z,20.8
2019-05-22T16:38:02.309Z,20.6
2019-05-22T16:39:12.344Z,20.5
2019-05-22T16:40:02.361Z,20.4
2019-05-22T16:41:02.418Z,20.4
2019-05-22T16:42:02.386Z,20.4
2019-05-22T16:43:02.409Z,20.4
2019-05-22T16:44:12.418Z,20.4
2019-05-22T16:45:02.421Z,20.2
2019-05-22T16:46:02.436Z,20.3
2019-05-22T16:47:02.453Z,20.3
2019-05-22T16:48:02.502Z,20.1
2019-05-22T16:49:12.511Z,20.0
2019-05-22T16:50:02.549Z,20.1
2019-05-22T16:51:02.703Z,19.9
2019-05-22T16:52:02.766Z,19.8
2019-05-22T16:53:02.714Z,19.8
2019-05-22T16:54:12.711Z,19.7
2019-05-22T16:55:02.743Z,19.8
2019-05-22T16:56:02.751Z,19.7
2019-05-22T16:57:02.753Z,19.6
2019-05-22T16:58:02.763Z,19.6
2019-05-22T16:59:12.798Z,19.5
2019-05-22T17:00:02.809Z,19.4
2019-05-22T17:02:02.818Z,19.3
2019-05-22T17:03:02.892Z,19.3
2019-05-22T17:04:12.911Z,19.2
2019-05-22T17:05:02.856Z,19.1
2019-05-22T17:06:02.939Z,19.1
2019-05-22T17:07:02.883Z,19.1
2019-05-22T17:08:02.943Z,19.1
2019-05-22T17:09:12.958Z,19.1
2019-05-22T17:10:02.952Z,18.9
2019-05-22T17:11:03.001Z,19.1
2019-05-22T17:12:04.833Z,19.0
2019-05-22T17:13:03.051Z,18.9
2019-05-22T17:14:13.071Z,18.9
2019-05-22T17:15:03.087Z,18.9
2019-05-22T17:16:03.131Z,18.8
2019-05-22T17:17:03.192Z,18.7
2019-05-22T17:18:03.215Z,18.8
2019-05-22T17:19:26.137Z,18.7
2019-05-22T17:20:03.260Z,18.8
2019-05-22T17:21:03.295Z,18.7
2019-05-22T17:22:03.406Z,18.6
2019-05-22T17:23:03.282Z,18.7
2019-05-22T17:24:13.325Z,18.6
2019-05-22T17:25:03.357Z,18.5
2019-05-22T17:26:03.382Z,18.5
2019-05-22T17:27:03.441Z,18.5
2019-05-22T17:29:13.682Z,18.4
2019-05-22T17:30:03.756Z,18.4
2019-05-22T17:31:03.778Z,18.5
2019-05-22T17:32:03.792Z,18.4